Time;durP1;ratioP1;P1;durP2;ratioP2;P2;SDS_P1;SDS_P2;PMS_P1;PMS_P2;Temp;Humidity;BMP_temperature;BMP_pressure;BME280_temperature;BME280_humidity;BME280_pressure;Samples;Min_cycle;Max_cycle;Signal;HPM_P1;HPM_P2
2024/03/26 00:02:06;;;;;;;12.02;4.68;;;;;;;;;;5072064;28;20043;-68
2024/03/26 00:05:10;;;;;;;12.60;4.50;;;;;;;;;;5071878;28;20507;-68
2024/03/26 00:08:14;;;;;;;14.15;4.88;;;;;;;;;;5071663;28;20052;-68
2024/03/26 00:11:22;;;;;;;14.70;5.40;;;;;;;;;;5071846;28;20044;-68
2024/03/26 00:14:26;;;;;;;14.82;5.57;;;;;;;;;;5071573;28;20051;-68
2024/03/26 00:17:31;;;;;;;14.35;5.50;;;;;;;;;;5071446;28;20043;-69
2024/03/26 00:20:35;;;;;;;14.88;5.80;;;;;;;;;;5069832;28;20056;-68
2024/03/26 00:23:39;;;;;;;30.50;14.07;;;;;;;;;;5071704;28;20055;-68
2024/03/26 00:26:43;;;;;;;40.95;20.70;;;;;;;;;;5071386;28;20499;-69
2024/03/26 00:29:48;;;;;;;45.85;24.70;;;;;;;;;;5071136;28;20040;-68
2024/03/26 00:32:52;;;;;;;50.80;24.33;;;16.20;87.80;;;;;;5070514;28;20055;-69
2024/03/26 00:35:57;;;;;;;41.50;21.77;;;;;;;;;;5071514;28;20043;-69
2024/03/26 00:39:01;;;;;;;38.10;21.67;;;;;;;;;;5071360;28;20055;-69
2024/03/26 00:42:06;;;;;;;41.13;21.92;;;;;;;;;;5070533;28;20052;-68
2024/03/26 00:45:13;;;;;;;44.17;22.05;;;16.00;87.10;;;;;;5071021;28;20090;-68
2024/03/26 00:48:17;;;;;;;45.55;20.33;;;;;;;;;;5071244;28;20388;-68
2024/03/26 00:51:21;;;;;;;38.65;19.70;;;;;;;;;;5071038;28;20047;-69
2024/03/26 00:54:26;;;;;;;38.65;18.08;;;;;;;;;;5070887;28;20047;-69
2024/03/26 00:57:30;;;;;;;35.70;16.90;;;;;;;;;;5070067;28;20048;-68
2024/03/26 01:00:38;;;;;;;40.30;19.98;;;19.50;88.30;;;;;;5070749;28;20056;-68
2024/03/26 01:03:42;;;;;;;41.00;21.55;;;;;;;;;;5069922;28;20043;-68
2024/03/26 01:06:46;;;;;;;40.53;20.50;;;;;;;;;;5070955;28;20052;-68
2024/03/26 01:09:51;;;;;;;35.38;20.42;;;;;;;;;;5070964;28;20047;-68
2024/03/26 01:12:55;;;;;;;33.22;17.08;;;;;;;;;;5071007;28;20047;-68
2024/03/26 01:15:59;;;;;;;32.90;15.02;;;;;;;;;;5070982;28;20051;-69
2024/03/26 01:19:04;;;;;;;29.35;14.90;;;;;;;;;;5069835;28;20051;-69
2024/03/26 01:22:08;;;;;;;29.40;14.55;;;;;;;;;;5070754;28;20382;-69
2024/03/26 01:25:12;;;;;;;34.13;16.13;;;;;;;;;;5070692;28;20051;-69
2024/03/26 01:28:16;;;;;;;34.28;17.55;;;;;;;;;;5070470;28;20048;-69
2024/03/26 01:31:21;;;;;;;34.42;17.88;;;;;;;;;;5075290;28;20047;-69
2024/03/26 01:34:25;;;;;;;32.70;18.08;;;;;;;;;;5077501;28;20059;-69
2024/03/26 01:37:29;;;;;;;32.75;17.10;;;;;;;;;;5077350;28;20048;-69
2024/03/26 01:40:34;;;;;;;40.45;15.88;;;;;;;;;;5076916;28;20127;-69
2024/03/26 01:43:38;;;;;;;29.05;14.70;;;;;;;;;;5076911;28;20078;-69
2024/03/26 01:46:42;;;;;;;28.15;13.90;;;;;;;;;;5077221;28;20055;-69
2024/03/26 01:49:47;;;;;;;33.13;14.27;;;16.40;87.20;;;;;;5077339;28;20395;-68
2024/03/26 01:52:52;;;;;;;31.10;13.23;;;;;;;;;;5076510;28;20647;-69
2024/03/26 01:55:57;;;;;;;29.48;15.00;;;15.80;86.90;;;;;;5077101;28;20396;-68
2024/03/26 01:59:04;;;;;;;32.72;16.25;;;15.70;86.30;;;;;;5077120;28;20055;-68
2024/03/26 02:02:09;;;;;;;28.92;14.80;;;;;;;;;;5076431;28;20059;-69
2024/03/26 02:05:13;;;;;;;27.40;14.43;;;;;;;;;;5076949;28;20055;-68
2024/03/26 02:08:17;;;;;;;31.40;14.32;;;;;;;;;;5077055;28;20040;-69
2024/03/26 02:11:22;;;;;;;34.00;14.85;;;;;;;;;;5075909;28;20039;-69
2024/03/26 02:14:26;;;;;;;36.88;16.73;;;;;;;;;;5077465;28;20483;-68
2024/03/26 02:17:30;;;;;;;35.10;14.93;;;;;;;;;;5076929;28;20055;-68
2024/03/26 02:20:37;;;;;;;32.97;15.90;;;;;;;;;;5076708;28;20051;-68
2024/03/26 02:23:42;;;;;;;33.40;14.57;;;15.80;88.70;;;;;;5077035;28;20051;-68
2024/03/26 02:26:46;;;;;;;24.67;10.73;;;;;;;;;;5076686;28;20047;-68
2024/03/26 02:29:50;;;;;;;18.13;8.23;;;;;;;;;;5076954;28;20047;-68
2024/03/26 02:32:54;;;;;;;23.15;7.90;;;;;;;;;;5076513;28;20047;-68
2024/03/26 02:35:59;;;;;;;21.98;8.40;;;;;;;;;;5076459;28;20071;-69
2024/03/26 02:39:03;;;;;;;23.45;10.98;;;;;;;;;;5076762;28;20404;-68
2024/03/26 02:42:08;;;;;;;27.25;10.88;;;;;;;;;;5074446;28;20048;-68
2024/03/26 02:45:12;;;;;;;19.75;8.98;;;;;;;;;;5073729;28;20051;-68
2024/03/26 02:48:16;;;;;;;15.50;7.45;;;;;;;;;;5072704;28;20115;-68
2024/03/26 02:51:21;;;;;;;14.27;6.03;;;;;;;;;;5073586;28;20436;-69
2024/03/26 02:54:25;;;;;;;18.90;5.65;;;;;;;;;;5073056;28;20040;-68
2024/03/26 02:57:29;;;;;;;17.52;5.72;;;;;;;;;;5073186;28;20460;-68
2024/03/26 03:00:34;;;;;;;15.07;5.50;;;;;;;;;;5073089;28;20055;-68
2024/03/26 03:03:38;;;;;;;13.25;5.10;;;;;;;;;;5072515;28;20051;-68
2024/03/26 03:06:43;;;;;;;9.38;4.30;;;;;;;;;;5073174;28;20055;-68
2024/03/26 03:09:47;;;;;;;15.73;4.28;;;;;;;;;;5073292;28;20036;-68
2024/03/26 03:12:51;;;;;;;10.18;3.60;;;;;;;;;;5072313;28;20427;-68
2024/03/26 03:15:56;;;;;;;12.93;4.40;;;;;;;;;;5072887;28;20073;-68
2024/03/26 03:19:00;;;;;;;15.02;4.40;;;;;;;;;;5072814;28;20503;-68
2024/03/26 03:22:04;;;;;;;11.77;4.30;;;;;;;;;;5072994;28;20048;-68
2024/03/26 03:25:09;;;;;;;9.15;4.25;;;;;;;;;;5072778;28;20039;-68
2024/03/26 03:28:13;;;;;;;20.60;4.68;;;;;;;;;;5072365;28;20052;-68
2024/03/26 03:31:17;;;;;;;13.45;5.28;;;;;;;;;;5072501;28;20040;-68
2024/03/26 03:34:24;;;;;;;13.18;4.75;;;;;;;;;;5072505;28;20503;-68
2024/03/26 03:37:28;;;;;;;9.98;5.03;;;;;;;;;;5072740;28;20043;-69
2024/03/26 03:40:34;;;;;;;15.38;5.90;;;14.80;90.80;;;;;;5072330;28;20393;-69
2024/03/26 03:43:38;;;;;;;15.25;5.30;;;;;;;;;;5072415;28;20396;-69
2024/03/26 03:46:42;;;;;;;15.70;5.72;;;;;;;;;;5072521;28;20054;-69
2024/03/26 03:49:47;;;;;;;20.85;6.05;;;;;;;;;;5072442;28;20491;-69
2024/03/26 03:52:51;;;;;;;15.90;6.13;;;;;;;;;;5072107;28;20625;-69
2024/03/26 03:55:55;;;;;;;15.27;5.80;;;;;;;;;;5071966;28;20100;-69
2024/03/26 03:59:00;;;;;;;17.83;6.38;;;;;;;;;;5072682;28;20035;-69
2024/03/26 04:02:04;;;;;;;16.00;6.38;;;;;;;;;;5072124;28;20400;-69
2024/03/26 04:05:09;;;;;;;18.25;7.07;;;;;;;;;;5072010;28;20047;-69
2024/03/26 04:08:13;;;;;;;14.93;6.72;;;;;;;;;;5071792;28;20055;-69
2024/03/26 04:11:17;;;;;;;20.45;6.88;;;;;;;;;;5072026;28;20062;-69
2024/03/26 04:14:22;;;;;;;20.80;7.45;;;;;;;;;;5071764;28;20044;-69
2024/03/26 04:17:26;;;;;;;24.60;7.97;;;;;;;;;;5071566;28;20396;-69
2024/03/26 04:20:30;;;;;;;21.50;7.75;;;;;;;;;;5071521;28;20059;-69
2024/03/26 04:23:35;;;;;;;27.40;7.97;;;;;;;;;;5071358;28;20043;-69
2024/03/26 04:26:39;;;;;;;21.70;8.32;;;;;;;;;;5071398;28;20047;-69
2024/03/26 04:29:44;;;;;;;21.98;8.00;;;;;;;;;;5071655;28;20047;-69
2024/03/26 04:32:48;;;;;;;20.83;6.72;;;;;;;;;;5070429;28;20043;-69
2024/03/26 04:35:52;;;;;;;15.13;5.95;;;;;;;;;;5071535;28;20077;-69
2024/03/26 04:38:57;;;;;;;16.42;4.35;;;;;;;;;;5071252;28;20048;-69
2024/03/26 04:42:02;;;;;;;19.40;3.83;;;;;;;;;;5071408;28;20056;-69
2024/03/26 04:45:06;;;;;;;20.48;3.70;;;;;;;;;;5070299;28;20070;-69
2024/03/26 04:48:10;;;;;;;18.67;4.07;;;;;;;;;;5071385;28;20047;-69
2024/03/26 04:51:15;;;;;;;22.42;3.17;;;;;;;;;;5070792;28;20384;-69
2024/03/26 04:54:19;;;;;;;16.42;2.80;;;;;;;;;;5070894;28;20047;-69
2024/03/26 04:57:24;;;;;;;20.73;3.78;;;;;;;;;;5071037;28;20047;-69
2024/03/26 05:00:29;;;;;;;16.75;3.55;;;;;;;;;;5070812;28;20424;-69
2024/03/26 05:03:33;;;;;;;27.30;3.75;;;;;;;;;;5070985;28;20051;-69
2024/03/26 05:06:37;;;;;;;21.70;4.25;;;;;;;;;;5069995;28;20043;-69
2024/03/26 05:09:41;;;;;;;12.60;3.40;;;;;;;;;;5070768;28;20051;-69
2024/03/26 05:12:46;;;;;;;18.45;3.60;;;;;;;;;;5070867;28;20419;-68
2024/03/26 05:15:50;;;;;;;22.08;3.58;;;;;;;;;;5070916;28;20055;-68
2024/03/26 05:18:55;;;;;;;18.88;3.25;;;;;;;;;;5070004;28;20063;-68
2024/03/26 05:21:59;;;;;;;27.67;4.30;;;;;;;;;;5070826;28;20043;-68
2024/03/26 05:25:03;;;;;;;21.73;3.72;;;;;;;;;;5070569;28;20052;-68
2024/03/26 05:28:07;;;;;;;18.35;4.22;;;;;;;;;;5069409;28;20048;-68
2024/03/26 05:31:17;;;;;;;25.23;3.67;;;16.90;83.40;;;;;;5070675;28;20051;-69
2024/03/26 05:34:21;;;;;;;21.20;3.55;;;;;;;;;;5070457;28;20521;-68
2024/03/26 05:37:25;;;;;;;18.77;3.33;;;;;;;;;;5070312;28;20048;-68
2024/03/26 05:40:29;;;;;;;21.20;3.45;;;;;;;;;;5070566;28;20060;-68
2024/03/26 05:43:34;;;;;;;23.67;5.35;;;;;;;;;;5070701;28;20047;-68
2024/03/26 05:46:38;;;;;;;19.70;4.05;;;;;;;;;;5069769;28;20055;-68
2024/03/26 05:49:43;;;;;;;27.42;3.92;;;;;;;;;;5070660;28;20072;-68
2024/03/26 05:52:47;;;;;;;19.52;3.50;;;;;;;;;;5070567;28;20043;-68
2024/03/26 05:55:51;;;;;;;17.40;3.35;;;;;;;;;;5069956;28;20047;-68
2024/03/26 05:58:55;;;;;;;16.38;4.13;;;;;;;;;;5070174;28;20043;-68
2024/03/26 06:01:59;;;;;;;25.90;3.75;;;;;;;;;;5069504;28;20059;-69
2024/03/26 06:05:04;;;;;;;21.98;3.92;;;;;;;;;;5070174;28;20044;-68
2024/03/26 06:08:08;;;;;;;20.50;3.45;;;;;;;;;;5070306;28;20047;-68
2024/03/26 06:11:12;;;;;;;19.13;4.47;;;;;;;;;;5070413;28;20550;-68
2024/03/26 06:14:17;;;;;;;15.43;4.30;;;;;;;;;;5070315;28;20051;-68
2024/03/26 06:17:22;;;;;;;22.17;4.57;;;;;;;;;;5070933;28;20044;-68
2024/03/26 06:20:27;;;;;;;21.70;4.55;;;;;;;;;;5073730;28;20067;-68
2024/03/26 06:23:37;;;;;;;17.65;4.18;;;16.70;91.00;;;;;;5073833;28;20043;-68
2024/03/26 06:26:42;;;;;;;18.40;4.50;;;;;;;;;;5073346;28;20299;-68
2024/03/26 06:29:46;;;;;;;19.70;4.40;;;;;;;;;;5073015;28;20503;-68
2024/03/26 06:32:51;;;;;;;21.35;4.20;;;;;;;;;;5073591;28;20044;-68
2024/03/26 06:35:55;;;;;;;18.15;4.35;;;;;;;;;;5073124;28;20042;-68
2024/03/26 06:38:59;;;;;;;21.35;4.70;;;;;;;;;;5072563;28;20047;-65
2024/03/26 06:42:04;;;;;;;23.65;4.45;;;;;;;;;;5073682;28;20052;-66
2024/03/26 06:45:09;;;;;;;18.73;4.47;;;;;;;;;;5073493;28;20047;-66
2024/03/26 06:48:14;;;;;;;13.82;3.40;;;;;;;;;;5073071;28;20496;-66
2024/03/26 06:51:18;;;;;;;21.25;3.90;;;;;;;;;;5073597;28;20055;-66
2024/03/26 06:54:22;;;;;;;28.33;5.35;;;;;;;;;;5073459;28;20463;-65
2024/03/26 06:57:27;;;;;;;18.85;4.68;;;;;;;;;;5072487;28;20039;-65
2024/03/26 07:00:31;;;;;;;29.77;4.68;;;;;;;;;;5073310;28;20412;-65
2024/03/26 07:03:36;;;;;;;24.83;5.03;;;;;;;;;;5073357;28;20052;-65
2024/03/26 07:06:40;;;;;;;17.10;3.75;;;;;;;;;;5072155;28;20115;-66
2024/03/26 07:09:44;;;;;;;28.65;7.85;;;;;;;;;;5073461;28;20051;-66
2024/03/26 07:12:49;;;;;;;19.52;6.97;;;;;;;;;;5072884;28;20047;-67
2024/03/26 07:15:53;;;;;;;26.02;6.40;;;;;;;;;;5072936;28;20047;-66
2024/03/26 07:18:57;;;;;;;26.27;7.78;;;;;;;;;;5073150;28;20047;-67
2024/03/26 07:22:02;;;;;;;20.13;6.38;;;;;;;;;;5073150;28;20063;-68
2024/03/26 07:25:06;;;;;;;27.33;4.68;;;;;;;;;;5072701;28;20040;-67
2024/03/26 07:28:14;;;;;;;22.20;6.55;;;;;;;;;;5072101;28;20056;-67
2024/03/26 07:31:19;;;;;;;18.88;4.60;;;;;;;;;;5072237;28;20044;-68
2024/03/26 07:34:24;;;;;;;25.52;5.30;;;17.40;92.70;;;;;;5072558;28;20043;-68
2024/03/26 07:37:30;;;;;;;26.90;7.32;;;;;;;;;;5072741;28;20047;-68
2024/03/26 07:40:35;;;;;;;27.67;6.75;;;17.10;93.20;;;;;;5072328;28;20056;-68
2024/03/26 07:43:39;;;;;;;29.27;7.20;;;;;;;;;;5072422;28;20040;-68
2024/03/26 07:46:44;;;;;;;23.38;5.10;;;17.10;93.10;;;;;;5072287;28;20526;-69
2024/03/26 07:49:48;;;;;;;24.52;6.75;;;;;;;;;;5071474;28;20044;-68
2024/03/26 07:52:53;;;;;;;20.83;5.45;;;;;;;;;;5072223;28;20044;-68
2024/03/26 07:55:57;;;;;;;24.27;6.45;;;;;;;;;;5071798;28;20068;-68
2024/03/26 07:59:01;;;;;;;23.67;5.55;;;;;;;;;;5072072;28;20051;-68
2024/03/26 08:02:05;;;;;;;32.30;6.38;;;;;;;;;;5071669;28;20143;-68
2024/03/26 08:05:10;;;;;;;24.20;6.03;;;;;;;;;;5071966;28;20627;-68
2024/03/26 08:08:14;;;;;;;25.05;5.30;;;;;;;;;;5071897;28;20040;-69
2024/03/26 08:11:19;;;;;;;20.67;5.13;;;;;;;;;;5071986;28;20051;-69
2024/03/26 08:14:24;;;;;;;23.75;5.30;;;;;;;;;;5071747;28;20044;-69
2024/03/26 08:17:28;;;;;;;29.02;5.30;;;;;;;;;;5071856;28;20060;-68
2024/03/26 08:20:39;;;;;;;24.45;5.88;;;17.10;93.70;;;;;;5070907;28;20055;-69
2024/03/26 08:23:43;;;;;;;;;;;17.90;94.30;;;;;;5071909;28;20044;-69
2024/03/26 08:26:48;;;;;;;21.48;5.40;;;;;;;;;;5071198;28;19908;-69
2024/03/26 08:29:52;;;;;;;29.25;7.53;;;;;;;;;;5071789;28;20063;-69
2024/03/26 08:32:57;;;;;;;26.00;7.15;;;;;;;;;;5071879;28;20119;-69
2024/03/26 08:36:04;;;;;;;28.63;7.80;;;17.00;95.30;;;;;;5071695;28;20508;-69
2024/03/26 08:39:10;;;;;;;34.47;7.03;;;;;;;;;;5071577;28;20040;-69
2024/03/26 08:42:14;;;;;;;32.38;8.27;;;;;;;;;;5071447;28;20053;-69
2024/03/26 08:45:18;;;;;;;23.08;6.40;;;;;;;;;;5071724;28;20745;-68
2024/03/26 08:48:22;;;;;;;30.95;7.15;;;;;;;;;;5071548;28;20056;-68
2024/03/26 08:51:30;;;;;;;24.42;6.97;;;;;;;;;;5071024;28;20496;-69
2024/03/26 08:54:35;;;;;;;25.20;7.43;;;;;;;;;;5071300;28;20047;-69
2024/03/26 08:57:39;;;;;;;21.58;6.20;;;;;;;;;;5071121;28;20047;-69
2024/03/26 09:00:43;;;;;;;19.33;6.38;;;;;;;;;;5070781;28;20059;-69
2024/03/26 09:03:47;;;;;;;24.10;7.30;;;;;;;;;;5071014;28;20048;-69
2024/03/26 09:06:52;;;;;;;32.30;7.65;;;;;;;;;;5070881;28;20055;-69
2024/03/26 09:09:57;;;;;;;28.52;7.65;;;;;;;;;;5071014;28;20067;-68
2024/03/26 09:13:01;;;;;;;25.70;7.05;;;;;;;;;;5070848;28;20052;-66
2024/03/26 09:16:07;;;;;;;27.67;7.35;;;15.70;95.50;;;;;;5070943;28;20047;-67
2024/03/26 09:19:11;;;;;;;36.92;7.28;;;;;;;;;;5070761;28;20051;-67
2024/03/26 09:22:15;;;;;;;25.73;7.25;;;;;;;;;;5070766;28;20056;-67
2024/03/26 09:25:20;;;;;;;25.48;6.15;;;17.00;96.00;;;;;;5070799;28;20040;-67
2024/03/26 09:28:24;;;;;;;26.23;7.07;;;;;;;;;;5070505;28;20052;-67
2024/03/26 09:31:28;;;;;;;31.13;7.30;;;;;;;;;;5070766;28;20087;-67
2024/03/26 09:34:33;;;;;;;29.95;7.50;;;;;;;;;;5070669;28;20051;-68
2024/03/26 09:37:37;;;;;;;25.45;7.53;;;;;;;;;;5070476;28;20043;-69
2024/03/26 09:40:46;;;;;;;32.17;8.05;;;15.10;96.90;;;;;;5070383;28;20056;-69
2024/03/26 09:43:52;;;;;;;37.30;8.23;;;;;;;;;;5070668;28;20048;-68
2024/03/26 09:47:01;;;;;;;30.85;9.77;;;15.70;97.40;;;;;;5070490;28;20047;-68
2024/03/26 09:50:06;;;;;;;31.45;7.97;;;16.90;98.10;;;;;;5070619;28;20394;-69
2024/03/26 09:53:17;;;;;;;24.58;8.07;;;17.10;98.90;;;;;;5074219;28;20051;-68
2024/03/26 09:56:22;;;;;;;37.55;9.18;;;15.00;99.00;;;;;;5074442;28;20071;-68
2024/03/26 09:59:27;;;;;;;40.17;9.77;;;16.90;99.80;;;;;;5074199;28;20040;-68
2024/03/26 10:02:32;;;;;;;32.80;8.50;;;;;;;;;;5074326;28;20079;-69
2024/03/26 10:05:36;;;;;;;28.50;8.57;;;;;;;;;;5074181;28;20051;-69
2024/03/26 10:08:40;;;;;;;39.00;9.70;;;;;;;;;;5074052;28;20404;-69
2024/03/26 10:11:46;;;;;;;31.45;9.20;;;17.00;99.90;;;;;;5074406;28;20535;-69
2024/03/26 10:14:50;;;;;;;39.88;11.50;;;;;;;;;;5074011;28;20043;-69
2024/03/26 10:17:55;;;;;;;36.40;11.63;;;;;;;;;;5074239;28;20056;-69
2024/03/26 10:21:02;;;;;;;36.83;9.68;;;;;;;;;;5073806;28;20051;-69
2024/03/26 10:24:06;;;;;;;33.17;10.48;;;;;;;;;;5073891;28;20043;-71
2024/03/26 10:27:10;;;;;;;27.83;7.45;;;;;;;;;;5073548;28;20056;-69
2024/03/26 10:30:17;;;;;;;24.98;8.13;;;17.00;99.90;;;;;;5073661;28;20044;-71
2024/03/26 10:33:22;;;;;;;32.65;8.85;;;;;;;;;;5073823;28;20048;-69
2024/03/26 10:36:26;;;;;;;24.73;8.60;;;;;;;;;;5073699;28;20048;-71
2024/03/26 10:39:36;;;;;;;24.55;7.72;;;17.00;99.90;;;;;;5072830;28;20504;-68
2024/03/26 10:42:48;;;;;;;21.08;8.32;;;;;;;;;;5072045;28;20064;-70
2024/03/26 10:45:53;;;;;;;30.98;9.13;;;16.90;99.90;;;;;;5072290;28;20036;-69
2024/03/26 10:49:00;;;;;;;31.70;9.95;;;16.70;99.90;;;;;;5072901;28;20055;-67
2024/03/26 10:52:07;;;;;;;30.38;9.82;;;16.90;99.90;;;;;;5072796;28;20047;-68
2024/03/26 10:55:12;;;;;;;32.20;9.20;;;13.10;99.90;;;;;;5072856;28;20127;-70
2024/03/26 10:58:19;;;;;;;27.52;7.57;;;16.90;99.90;;;;;;5071976;28;20051;-67
2024/03/26 11:01:26;;;;;;;26.55;7.88;;;16.80;99.90;;;;;;5072850;28;20047;-68
2024/03/26 11:04:30;;;;;;;33.88;7.68;;;;;;;;;;5071629;28;20063;-69
2024/03/26 11:07:38;;;;;;;30.02;7.70;;;16.60;99.90;;;;;;5072739;28;20511;-71
2024/03/26 11:10:58;;;;;;;23.05;6.55;;;16.80;99.90;;;;;;5071600;28;20051;-73
2024/03/26 11:14:06;;;;;;;25.08;7.05;;;16.70;99.90;;;;;;5072539;28;20051;-70
2024/03/26 11:17:13;;;;;;;21.23;7.80;;;16.70;99.90;;;;;;5072291;28;20071;-70
2024/03/26 11:20:20;;;;;;;27.08;7.78;;;15.40;99.90;;;;;;5072338;28;20044;-69
2024/03/26 11:23:24;;;;;;;21.80;7.18;;;;;;;;;;5072076;28;20493;-73
2024/03/26 11:26:30;;;;;;;28.10;8.07;;;17.20;99.90;;;;;;5072296;28;20519;-71
2024/03/26 11:29:36;;;;;;;29.00;8.15;;;;;;;;;;5072111;28;20052;-68
2024/03/26 11:32:40;;;;;;;27.20;8.25;;;;;;;;;;5072198;28;20043;-67
2024/03/26 11:35:46;;;;;;;24.58;8.20;;;15.90;99.90;;;;;;5070928;28;20166;-67
2024/03/26 11:38:51;;;;;;;26.80;8.20;;;;;;;;;;5071847;28;20048;-68
2024/03/26 11:41:56;;;;;;;23.50;7.45;;;;;;;;;;5071487;28;20059;-67
2024/03/26 11:45:08;;;;;;;27.10;8.00;;;16.30;99.90;;;;;;5071893;28;20067;-68
2024/03/26 11:48:16;;;;;;;32.70;8.27;;;16.30;99.90;;;;;;5071990;28;20059;-67
2024/03/26 11:51:21;;;;;;;24.98;8.18;;;;;;;;;;5058557;28;20036;-68
2024/03/26 11:54:26;;;;;;;25.50;9.38;;;;;;;;;;5071535;28;20067;-68
2024/03/26 11:57:30;;;;;;;25.73;8.57;;;;;;;;;;5071401;28;20044;-67
2024/03/26 12:00:38;;;;;;;34.67;8.82;;;16.20;99.90;;;;;;5071421;28;20404;-69
2024/03/26 12:03:56;;;;;;;29.27;8.57;;;16.20;99.90;;;;;;5071565;28;20051;-72
2024/03/26 12:07:03;;;;;;;30.75;10.20;;;;;;;;;;5071335;28;20051;-69
2024/03/26 12:10:07;;;;;;;22.05;8.75;;;;;;;;;;5071323;28;20408;-68
2024/03/26 12:13:12;;;;;;;34.13;15.10;;;;;;;;;;5071064;28;20047;-70
2024/03/26 12:16:27;;;;;;;31.88;11.27;;;16.00;99.90;;;;;;5070027;28;20047;-70
2024/03/26 12:19:32;;;;;;;27.33;8.60;;;;;;;;;;5070395;28;20044;-71
2024/03/26 12:22:40;;;;;;;29.55;10.13;;;17.10;99.90;;;;;;5070734;28;20404;-70
2024/03/26 12:25:48;;;;;;;27.08;10.52;;;;;;;;;;5071210;28;20059;-72
2024/03/26 12:28:52;;;;;;;29.05;10.48;;;;;;;;;;5030978;28;20048;-71
2024/03/26 12:31:57;;;;;;;26.23;10.07;;;;;;;;;;5030921;28;20044;-71
2024/03/26 12:35:01;;;;;;;28.80;9.27;;;;;;;;;;5030879;28;20068;-71
2024/03/26 12:38:06;;;;;;;27.60;10.25;;;;;;;;;;5031090;28;20048;-71
2024/03/26 12:41:11;;;;;;;26.67;9.93;;;;;;;;;;5030796;28;20096;-70
2024/03/26 12:44:15;;;;;;;26.00;9.50;;;16.00;99.90;;;;;;5030839;28;20065;-69
2024/03/26 12:47:20;;;;;;;24.15;9.38;;;;;;;;;;5030829;28;20052;-70
2024/03/26 12:50:24;;;;;;;28.60;9.30;;;;;;;;;;5031035;28;20048;-71
2024/03/26 12:53:28;;;;;;;26.08;9.93;;;;;;;;;;5029740;28;20048;-70
2024/03/26 12:56:33;;;;;;;34.03;10.90;;;16.00;99.90;;;;;;5030898;28;20389;-71
2024/03/26 12:59:37;;;;;;;23.23;10.80;;;;;;;;;;5030498;28;20429;-70
2024/03/26 13:02:42;;;;;;;26.83;11.82;;;;;;;;;;5030963;28;20052;-70
2024/03/26 13:05:49;;;;;;;33.15;12.52;;;;;;;;;;5030864;28;20402;-70
2024/03/26 13:08:53;;;;;;;34.28;13.90;;;;;;;;;;5030666;28;20076;-70
2024/03/26 13:11:57;;;;;;;37.33;13.50;;;;;;;;;;5030371;28;20421;-70
2024/03/26 13:15:04;;;;;;;37.20;14.90;;;;;;;;;;5030309;28;20044;-71
2024/03/26 13:18:18;;;;;;;22.77;11.00;;;;;;;;;;5030263;28;20634;-71
2024/03/26 13:21:22;;;;;;;21.85;10.00;;;;;;;;;;5030281;28;20056;-71
2024/03/26 13:24:26;;;;;;;24.90;10.10;;;;;;;;;;5029951;28;20044;-72
2024/03/26 13:27:30;;;;;;;23.80;9.88;;;;;;;;;;5048714;28;20059;-71
2024/03/26 13:30:35;;;;;;;30.25;10.75;;;;;;;;;;5070211;28;20047;-71
2024/03/26 13:33:39;;;;;;;20.77;8.00;;;;;;;;;;5070118;28;20046;-70
2024/03/26 13:36:44;;;;;;;29.10;9.20;;;;;;;;;;5070192;28;20063;-70
2024/03/26 13:39:48;;;;;;;30.48;9.57;;;;;;;;;;5070360;28;20047;-70
2024/03/26 13:42:52;;;;;;;28.50;8.98;;;;;;;;;;5070172;28;20051;-70
2024/03/26 13:45:57;;;;;;;28.80;8.85;;;;;;;;;;5069536;28;20063;-70
2024/03/26 13:49:01;;;;;;;28.15;9.55;;;;;;;;;;5070555;28;20052;-70
2024/03/26 13:52:21;;;;;;;23.35;8.75;;;;;;;;;;5069587;28;20047;-70
2024/03/26 13:55:25;;;;;;;30.38;9.80;;;;;;;;;;5070237;28;20060;-70
2024/03/26 13:58:30;;;;;;;31.95;10.00;;;;;;;;;;5069528;28;20531;-69
2024/03/26 14:01:40;;;;;;;33.42;9.23;;;;;;;;;;5070018;28;20056;-70
2024/03/26 14:04:48;;;;;;;34.70;9.48;;;;;;;;;;5070148;28;20039;-70
2024/03/26 14:07:53;;;;;;;36.78;9.45;;;;;;;;;;5069802;28;20051;-70
2024/03/26 14:10:58;;;;;;;32.13;8.57;;;;;;;;;;5069026;28;20087;-70
2024/03/26 14:14:11;;;;;;;22.65;7.50;;;;;;;;;;5069816;28;20051;-70
2024/03/26 14:17:21;;;;;;;24.85;6.93;;;;;;;;;;5069878;28;20047;-71
2024/03/26 14:20:26;;;;;;;26.88;6.75;;;;;;;;;;5069343;28;20043;-70
2024/03/26 14:23:30;;;;;;;22.45;6.00;;;17.20;99.90;;;;;;5069523;28;20052;-73
2024/03/26 14:26:35;;;;;;;23.55;6.97;;;;;;;;;;5069122;28;20128;-71
2024/03/26 14:29:40;;;;;;;23.35;7.20;;;;;;;;;;5069708;28;20051;-72
2024/03/26 14:32:45;;;;;;;25.73;6.47;;;;;;;;;;5068801;28;20047;-71
2024/03/26 14:35:49;;;;;;;25.48;7.35;;;;;;;;;;5069839;28;20051;-70
2024/03/26 14:38:54;;;;;;;21.98;7.72;;;;;;;;;;5071160;28;20047;-70
2024/03/26 14:42:01;;;;;;;27.50;9.02;;;;;;;;;;5073064;28;20059;-70
2024/03/26 14:45:05;;;;;;;23.05;7.05;;;;;;;;;;5072161;28;20511;-70
2024/03/26 14:48:11;;;;;;;26.48;7.57;;;;;;;;;;5073034;28;20050;-70
2024/03/26 14:51:18;;;;;;;29.88;8.55;;;;;;;;;;5072951;28;20419;-70
2024/03/26 14:54:22;;;;;;;33.40;8.13;;;;;;;;;;5073014;28;20492;-71
2024/03/26 14:57:29;;;;;;;31.58;7.80;;;;;;;;;;5072938;28;20042;-70
2024/03/26 15:00:33;;;;;;;22.58;8.43;;;;;;;;;;5072630;28;20068;-70
2024/03/26 15:03:39;;;;;;;25.40;7.93;;;;;;;;;;5072812;28;20055;-69
2024/03/26 15:06:46;;;;;;;26.90;8.30;;;;;;;;;;5072689;28;20047;-70
2024/03/26 15:09:50;;;;;;;28.13;7.28;;;;;;;;;;5071975;28;20515;-69
2024/03/26 15:12:54;;;;;;;25.20;6.90;;;;;;;;;;5072559;28;20043;-70
2024/03/26 15:15:59;;;;;;;23.42;6.68;;;;;;;;;;5072499;28;20047;-70
2024/03/26 15:19:03;;;;;;;26.95;8.18;;;;;;;;;;5072041;28;20048;-69
2024/03/26 15:22:10;;;;;;;30.17;7.90;;;;;;;;;;5070979;28;20051;-68
2024/03/26 15:25:16;;;;;;;25.92;8.10;;;;;;;;;;5070574;28;20044;-67
2024/03/26 15:31:59;;;;;;;35.70;9.70;;;;;;;;;;5070022;28;20047;-66
2024/03/26 15:35:03;;;;;;;30.67;9.20;;;;;;;;;;5071890;28;20055;-67
2024/03/26 15:38:07;;;;;;;23.48;6.50;;;;;;;;;;5071936;28;20052;-67
2024/03/26 15:41:12;;;;;;;21.63;5.53;;;;;;;;;;5072040;28;20487;-67
2024/03/26 15:44:16;;;;;;;23.95;6.90;;;;;;;;;;5071957;28;20417;-67
2024/03/26 15:47:20;;;;;;;23.05;5.45;;;;;;;;;;5070784;28;20052;-67
2024/03/26 15:50:26;;;;;;;17.45;5.78;;;;;;;;;;5070488;28;20043;-67
2024/03/26 15:53:40;;;;;;;27.27;6.68;;;;;;;;;;5071969;28;20722;-66
2024/03/26 15:56:58;;;;;;;26.70;6.53;;;;;;;;;;5071212;28;20036;-67
2024/03/26 16:00:03;;;;;;;25.20;6.82;;;;;;;;;;5071314;28;20052;-66
2024/03/26 16:03:09;;;;;;;22.35;6.70;;;;;;;;;;5071241;28;20056;-66
2024/03/26 16:06:13;;;;;;;22.42;6.50;;;;;;;;;;5071474;28;20047;-69
2024/03/26 16:09:18;;;;;;;23.80;6.20;;;;;;;;;;5071596;28;20046;-68
2024/03/26 16:12:45;;;;;;;22.90;6.30;;;;;;;;;;5070904;28;20626;-66
2024/03/26 16:15:51;;;;;;;24.05;7.65;;;;;;;;;;5071186;28;20492;-68
2024/03/26 16:18:58;;;;;;;21.08;7.50;;;;;;;;;;5069956;28;20048;-66
2024/03/26 16:22:03;;;;;;;24.00;7.75;;;;;;;;;;5070995;28;20762;-71
2024/03/26 16:25:10;;;;;;;20.50;7.00;;;;;;;;;;5070860;28;20052;-65
2024/03/26 16:28:15;;;;;;;22.70;7.40;;;;;;;;;;5070813;28;20154;-69
2024/03/26 16:31:19;;;;;;;26.42;8.35;;;;;;;;;;5070863;28;20056;-70
2024/03/26 16:34:24;;;;;;;26.63;7.50;;;;;;;;;;5071133;28;20051;-67
2024/03/26 16:37:37;;;;;;;20.85;7.50;;;;;;;;;;5070854;28;20043;-67
2024/03/26 16:40:44;;;;;;;19.95;6.60;;;;;;;;;;5070820;28;20052;-69
2024/03/26 16:43:49;;;;;;;19.45;6.57;;;;;;;;;;5070854;28;20051;-67
2024/03/26 16:46:53;;;;;;;21.75;6.97;;;;;;;;;;5070444;28;20044;-67
2024/03/26 16:49:58;;;;;;;21.23;6.93;;;;;;;;;;5070800;28;20055;-67
2024/03/26 16:53:03;;;;;;;28.67;8.70;;;;;;;;;;5069857;28;20051;-68
2024/03/26 16:56:08;;;;;;;20.65;6.90;;;;;;;;;;5070666;28;20043;-67
2024/03/26 16:59:13;;;;;;;24.13;8.02;;;;;;;;;;5070722;28;20051;-67
2024/03/26 17:02:26;;;;;;;29.25;7.15;;;;;;;;;;5069570;28;20051;-71
2024/03/26 17:05:32;;;;;;;25.42;8.13;;;;;;;;;;5068575;28;20047;-70
2024/03/26 17:08:37;;;;;;;24.98;7.22;;;;;;;;;;5069622;28;20047;-70
2024/03/26 17:11:42;;;;;;;26.17;8.02;;;;;;;;;;5069802;28;20047;-70
2024/03/26 17:14:49;;;;;;;19.75;7.72;;;;;;;;;;5070023;28;20411;-70
2024/03/26 17:18:03;;;;;;;35.97;10.13;;;;;;;;;;5069360;28;20126;-70
2024/03/26 17:21:09;;;;;;;21.83;7.88;;;;;;;;;;5069524;28;20408;-70
2024/03/26 17:24:14;;;;;;;29.33;9.50;;;;;;;;;;5070204;28;20499;-69
2024/03/26 17:27:21;;;;;;;42.55;11.27;;;;;;;;;;5070010;28;20143;-68
2024/03/26 17:30:25;;;;;;;34.13;10.10;;;;;;;;;;5069900;28;20051;-68
2024/03/26 17:33:40;;;;;;;33.20;9.25;;;;;;;;;;5070051;28;20361;-66
2024/03/26 17:36:48;;;;;;;27.85;10.50;;;17.20;99.90;;;;;;5069772;28;20614;-67
2024/03/26 17:39:56;;;;;;;25.65;9.98;;;;;;;;;;5069960;28;20059;-66
2024/03/26 17:43:01;;;;;;;30.58;9.82;;;;;;;;;;5069625;28;20066;-66
2024/03/26 17:46:05;;;;;;;34.95;11.60;;;;;;;;;;5070032;28;20047;-68
2024/03/26 17:49:10;;;;;;;31.55;10.82;;;;;;;;;;5069628;28;20236;-68
2024/03/26 17:52:14;;;;;;;41.60;10.40;;;;;;;;;;5069802;28;20047;-68